createdAt,value
2018-08-04T00:04:47.290Z,22.50
2018-08-04T00:07:16.648Z,22.40
2018-08-04T00:09:46.031Z,22.30
2018-08-04T00:12:15.386Z,22.30
2018-08-04T00:14:44.773Z,22.20
2018-08-04T00:17:14.107Z,22.20
2018-08-04T00:22:12.342Z,22.20
2018-08-04T00:24:41.732Z,21.90
2018-08-04T00:27:11.120Z,21.80
2018-08-04T00:29:40.448Z,21.90
2018-08-04T00:32:09.787Z,21.80
2018-08-04T00:34:39.129Z,21.90
2018-08-04T00:37:08.463Z,21.80
2018-08-04T00:39:37.928Z,21.90
2018-08-04T00:42:07.249Z,21.80
2018-08-04T00:44:36.669Z,21.80
2018-08-04T00:47:06.428Z,21.70
2018-08-04T00:49:35.797Z,21.50
2018-08-04T00:52:05.234Z,21.40
2018-08-04T00:54:34.599Z,21.50
2018-08-04T00:57:03.981Z,21.60
2018-08-04T00:59:33.326Z,21.60
2018-08-04T01:02:02.658Z,21.50
2018-08-04T01:04:32.006Z,21.50
2018-08-04T01:07:01.365Z,21.30
2018-08-04T01:09:30.727Z,21.30
2018-08-04T01:12:00.118Z,21.40
2018-08-04T01:14:29.454Z,21.60
2018-08-04T01:16:58.837Z,21.50
2018-08-04T01:19:28.163Z,21.60
2018-08-04T01:21:57.512Z,21.60
2018-08-04T01:24:26.840Z,21.40
2018-08-04T01:26:56.178Z,21.40
2018-08-04T01:29:25.543Z,21.40
2018-08-04T01:31:54.901Z,21.30
2018-08-04T01:34:24.301Z,21.20
2018-08-04T01:36:53.643Z,21.10
2018-08-04T01:39:22.995Z,21.00
2018-08-04T01:41:52.336Z,21.00
2018-08-04T01:44:21.693Z,21.00
2018-08-04T01:46:51.148Z,21.00
2018-08-04T01:49:20.517Z,21.10
2018-08-04T01:51:49.852Z,21.00
2018-08-04T01:54:19.180Z,21.10
2018-08-04T01:56:48.523Z,21.10
2018-08-04T01:59:17.932Z,20.90
2018-08-04T02:01:47.241Z,20.60
2018-08-04T02:04:16.591Z,20.50
2018-08-04T02:06:45.909Z,20.50
2018-08-04T02:09:15.365Z,20.60
2018-08-04T02:11:44.718Z,20.70
2018-08-04T02:14:14.033Z,20.60
2018-08-04T02:16:43.353Z,20.60
2018-08-04T02:19:12.791Z,20.70
2018-08-04T02:21:42.270Z,20.70
2018-08-04T02:24:11.619Z,20.80
2018-08-04T02:29:09.846Z,20.50
2018-08-04T02:31:39.197Z,20.40
2018-08-04T02:34:08.596Z,20.50
2018-08-04T02:39:08.125Z,20.30
2018-08-04T02:41:37.497Z,20.20
2018-08-04T02:44:07.051Z,20.30
2018-08-04T02:46:36.444Z,20.30
2018-08-04T02:49:06.208Z,20.10
2018-08-04T02:51:35.547Z,20.20
2018-08-04T02:56:33.840Z,20.20
2018-08-04T02:59:03.206Z,20.10
2018-08-04T03:01:32.571Z,20.10
2018-08-04T03:04:01.886Z,20.20
2018-08-04T03:06:31.241Z,20.10
2018-08-04T03:09:00.546Z,20.00
2018-08-04T03:11:29.901Z,20.10
2018-08-04T03:13:59.252Z,20.00
2018-08-04T03:16:28.579Z,20.00
2018-08-04T03:19:00.096Z,19.80
2018-08-04T03:21:30.241Z,19.40
2018-08-04T03:23:59.573Z,19.40
2018-08-04T03:26:28.925Z,19.50
2018-08-04T03:28:58.278Z,19.60
2018-08-04T03:31:27.595Z,19.80
2018-08-04T03:33:56.928Z,19.80
2018-08-04T03:36:26.300Z,19.70
2018-08-04T03:38:55.624Z,19.80
2018-08-04T03:41:24.998Z,19.70
2018-08-04T03:43:54.381Z,19.70
2018-08-04T03:46:23.765Z,19.50
2018-08-04T03:48:53.224Z,19.40
2018-08-04T03:51:22.628Z,19.40
2018-08-04T03:53:52.014Z,19.50
2018-08-04T03:56:21.382Z,19.60
2018-08-04T03:58:51.047Z,19.40
2018-08-04T04:01:20.456Z,19.30
2018-08-04T04:03:50.876Z,19.10
2018-08-04T04:06:20.220Z,19.00
2018-08-04T04:08:49.561Z,19.00
2018-08-04T04:11:18.917Z,19.30
2018-08-04T04:13:48.290Z,19.40
2018-08-04T04:16:17.622Z,19.30
2018-08-04T04:18:46.982Z,19.30
2018-08-04T04:21:16.364Z,19.40
2018-08-04T04:23:45.795Z,19.30
2018-08-04T04:26:15.168Z,19.30
2018-08-04T04:28:44.557Z,19.20
2018-08-04T04:31:13.980Z,19.30
2018-08-04T04:33:43.399Z,19.50
2018-08-04T04:36:12.801Z,19.60
2018-08-04T04:38:42.200Z,19.50
2018-08-04T04:41:11.596Z,19.20
2018-08-04T04:43:40.919Z,19.20
2018-08-04T04:46:10.277Z,19.20
2018-08-04T04:48:39.732Z,19.30
2018-08-04T04:51:09.128Z,19.50
2018-08-04T04:53:38.483Z,19.60
2018-08-04T04:56:07.847Z,19.70
2018-08-04T04:58:37.183Z,19.80
2018-08-04T05:01:06.530Z,19.70
2018-08-04T05:03:35.868Z,19.70
2018-08-04T05:06:05.246Z,19.80
2018-08-04T05:08:34.584Z,19.90
2018-08-04T05:11:04.088Z,20.00
2018-08-04T05:13:33.608Z,20.10
2018-08-04T05:16:03.051Z,20.10
2018-08-04T05:18:32.430Z,20.20
2018-08-04T05:21:01.859Z,20.30
2018-08-04T05:23:31.246Z,20.50
2018-08-04T05:26:00.567Z,20.70
2018-08-04T05:28:29.898Z,20.90
2018-08-04T05:30:59.270Z,20.90
2018-08-04T05:33:28.681Z,20.80
2018-08-04T05:35:58.037Z,21.00
2018-08-04T05:38:27.326Z,21.30
2018-08-04T05:40:56.716Z,21.40
2018-08-04T05:43:26.164Z,21.70
2018-08-04T05:45:55.530Z,22.00
2018-08-04T05:48:24.963Z,22.40
2018-08-04T05:50:54.628Z,22.70
2018-08-04T05:53:24.023Z,22.80
2018-08-04T05:58:22.255Z,23.10
2018-08-04T06:00:51.742Z,23.30
2018-08-04T06:03:21.093Z,23.50
2018-08-04T06:05:50.517Z,23.70
2018-08-04T06:08:20.130Z,23.90
2018-08-04T06:10:49.485Z,24.20
2018-08-04T06:13:18.898Z,24.50
2018-08-04T06:15:48.279Z,24.80
2018-08-04T06:18:17.715Z,25.00
2018-08-04T06:20:47.223Z,25.20
2018-08-04T06:23:16.595Z,25.50
2018-08-04T06:25:46.085Z,25.70
2018-08-04T06:28:15.750Z,25.70
2018-08-04T06:30:45.138Z,26.10
2018-08-04T06:33:14.500Z,26.30
2018-08-04T06:35:43.801Z,26.50
2018-08-04T06:38:13.162Z,26.80
2018-08-04T06:40:42.589Z,27.10
2018-08-04T06:43:12.059Z,27.20
2018-08-04T06:45:41.475Z,27.30
2018-08-04T06:48:10.868Z,27.40
2018-08-04T06:50:40.299Z,27.80
2018-08-04T06:53:09.691Z,28.10
2018-08-04T06:55:39.070Z,28.40
2018-08-04T06:58:08.488Z,28.40
2018-08-04T07:00:37.803Z,28.50
2018-08-04T07:03:07.215Z,28.70
2018-08-04T07:05:36.540Z,28.80
2018-08-04T07:08:06.002Z,29.10
2018-08-04T07:10:35.362Z,29.00
2018-08-04T07:13:04.742Z,29.50
2018-08-04T07:15:34.139Z,29.80
2018-08-04T07:18:03.655Z,29.90
2018-08-04T07:20:32.978Z,29.50
2018-08-04T07:23:02.398Z,30.30
2018-08-04T07:25:31.774Z,30.20
2018-08-04T07:28:01.205Z,30.00
2018-08-04T07:30:30.573Z,30.60
2018-08-04T07:32:59.941Z,30.70
2018-08-04T07:35:29.272Z,31.00
2018-08-04T07:37:58.762Z,31.00
2018-08-04T07:40:28.125Z,31.00
2018-08-04T07:42:57.826Z,31.40
2018-08-04T07:45:27.238Z,31.10
2018-08-04T07:47:56.739Z,31.60
2018-08-04T07:50:26.216Z,32.10
2018-08-04T07:52:55.801Z,32.20
2018-08-04T07:55:25.312Z,31.70
2018-08-04T07:57:55.018Z,31.80
2018-08-04T08:00:24.466Z,32.30
2018-08-04T08:02:54.112Z,32.40
2018-08-04T08:07:52.600Z,32.70
2018-08-04T08:10:22.193Z,32.90
2018-08-04T08:12:52.238Z,33.10
2018-08-04T08:20:22.836Z,33.20
2018-08-04T08:22:54.273Z,33.50
2018-08-04T08:25:24.178Z,33.70
2018-08-04T08:27:55.439Z,33.80
2018-08-04T08:30:26.677Z,34.10
2018-08-04T08:33:02.208Z,33.80
2018-08-04T08:35:32.988Z,34.00
2018-08-04T08:38:08.042Z,33.80
2018-08-04T08:40:37.817Z,33.10
2018-08-04T08:43:07.526Z,33.90
2018-08-04T08:45:37.099Z,34.20
2018-08-04T08:50:35.884Z,34.10
2018-08-04T08:53:05.702Z,34.80
2018-08-04T08:55:35.116Z,35.00
2018-08-04T08:58:06.283Z,34.80
2018-08-04T09:00:35.801Z,34.70
2018-08-04T09:03:05.392Z,35.10
2018-08-04T09:05:34.914Z,35.40
2018-08-04T09:08:04.562Z,35.70
2018-08-04T09:10:35.053Z,35.60
2018-08-04T09:13:08.275Z,35.60
2018-08-04T09:15:42.840Z,35.10
2018-08-04T09:18:12.892Z,35.40
2018-08-04T09:20:43.618Z,35.20
2018-08-04T09:23:18.022Z,34.10
2018-08-04T09:25:48.790Z,34.90
2018-08-04T09:28:23.603Z,35.20
2018-08-04T09:30:54.333Z,35.10
2018-08-04T09:33:24.292Z,35.20
2018-08-04T09:35:54.203Z,34.60
2018-08-04T09:38:24.859Z,35.70
2018-08-04T09:40:59.736Z,36.30
2018-08-04T09:43:35.400Z,36.00
2018-08-04T09:46:05.106Z,35.00
2018-08-04T09:48:34.548Z,34.50
2018-08-04T09:51:03.908Z,34.30
2018-08-04T09:53:33.391Z,34.10
2018-08-04T09:56:02.918Z,34.70
2018-08-04T09:58:32.351Z,35.20
2018-08-04T10:01:06.997Z,35.50
2018-08-04T10:03:36.501Z,35.20
2018-08-04T10:06:05.958Z,35.00
2018-08-04T10:08:35.390Z,34.80
2018-08-04T10:11:04.769Z,35.00
2018-08-04T10:13:34.261Z,33.70
2018-08-04T10:16:03.655Z,33.90
2018-08-04T10:18:33.013Z,34.60
2018-08-04T10:23:31.404Z,34.40
2018-08-04T10:26:00.935Z,35.40
2018-08-04T10:28:30.344Z,35.00
2018-08-04T10:30:59.894Z,34.40
2018-08-04T10:33:29.329Z,34.80
2018-08-04T10:35:58.761Z,35.10
2018-08-04T10:38:28.105Z,35.80
2018-08-04T10:40:57.565Z,36.30
2018-08-04T10:43:26.903Z,36.30
2018-08-04T10:45:56.261Z,37.10
2018-08-04T10:48:25.630Z,37.50
2018-08-04T10:50:55.261Z,37.80
2018-08-04T10:53:25.913Z,37.90
2018-08-04T10:55:55.645Z,36.80
2018-08-04T10:58:25.408Z,37.30
2018-08-04T11:00:55.040Z,36.00
2018-08-04T11:03:24.560Z,36.80
2018-08-04T11:05:54.970Z,37.20
2018-08-04T11:08:24.855Z,36.90
2018-08-04T11:10:54.435Z,36.70
2018-08-04T11:13:23.853Z,37.00
2018-08-04T11:15:53.622Z,37.60
2018-08-04T11:18:23.245Z,36.40
2018-08-04T11:20:52.790Z,36.70
2018-08-04T11:23:22.347Z,36.80
2018-08-04T11:25:51.893Z,35.10
2018-08-04T11:28:21.316Z,36.20
2018-08-04T11:30:50.793Z,36.60
2018-08-04T11:33:20.671Z,36.80
2018-08-04T11:35:50.428Z,35.60
2018-08-04T11:38:19.918Z,36.30
2018-08-04T11:40:49.674Z,36.60
2018-08-04T11:43:19.133Z,36.90
2018-08-04T11:45:48.757Z,36.30
2018-08-04T11:48:18.338Z,36.60
2018-08-04T11:50:48.894Z,37.00
2018-08-04T11:53:19.235Z,37.10
2018-08-04T11:55:49.004Z,36.30
2018-08-04T11:58:20.114Z,36.70
2018-08-04T12:00:52.172Z,37.00
2018-08-04T12:03:23.934Z,36.50
2018-08-04T12:05:57.258Z,36.90
2018-08-04T12:08:27.051Z,37.00
2018-08-04T12:10:57.034Z,36.80
2018-08-04T12:13:27.877Z,36.20
2018-08-04T12:15:57.851Z,36.60
2018-08-04T12:18:27.347Z,37.40
2018-08-04T12:20:57.116Z,37.60
2018-08-04T12:23:26.965Z,37.50
2018-08-04T12:25:56.516Z,37.60
2018-08-04T12:28:26.098Z,37.20
2018-08-04T12:30:55.733Z,37.50
2018-08-04T12:33:25.529Z,37.30
2018-08-04T12:35:55.155Z,37.20
2018-08-04T12:38:25.020Z,36.90
2018-08-04T12:40:54.545Z,36.60
2018-08-04T12:43:24.106Z,36.10
2018-08-04T12:45:53.550Z,36.20
2018-08-04T12:48:23.418Z,36.30
2018-08-04T12:50:53.230Z,36.80
2018-08-04T12:53:23.989Z,36.60
2018-08-04T12:58:22.980Z,36.30
2018-08-04T13:00:52.961Z,36.70
2018-08-04T13:03:22.885Z,37.30
2018-08-04T13:05:52.850Z,37.90
2018-08-04T13:08:22.496Z,37.60
2018-08-04T13:10:52.107Z,37.30
2018-08-04T13:13:21.579Z,37.50
2018-08-04T13:15:51.834Z,37.70
2018-08-04T13:18:21.404Z,38.00
2018-08-04T13:20:52.289Z,37.80
2018-08-04T13:23:21.899Z,37.90
2018-08-04T13:25:51.675Z,37.70
2018-08-04T13:28:21.409Z,36.80
2018-08-04T13:30:51.065Z,36.40
2018-08-04T13:33:20.898Z,35.70
2018-08-04T13:35:50.336Z,35.60
2018-08-04T13:38:19.681Z,35.50
2018-08-04T13:40:49.052Z,35.30
2018-08-04T13:43:18.406Z,35.30
2018-08-04T13:45:47.928Z,35.00
2018-08-04T13:48:17.366Z,34.60
2018-08-04T13:50:46.838Z,34.60
2018-08-04T13:53:16.509Z,34.30
2018-08-04T13:55:45.927Z,34.50
2018-08-04T13:58:15.332Z,34.70
2018-08-04T14:00:44.724Z,34.50
2018-08-04T14:03:14.360Z,34.20
2018-08-04T14:05:44.721Z,34.00
2018-08-04T14:08:14.530Z,34.00
2018-08-04T14:10:44.037Z,34.00
2018-08-04T14:13:13.431Z,33.80
2018-08-04T14:15:42.854Z,33.70
2018-08-04T14:18:12.351Z,33.70
2018-08-04T14:20:41.954Z,33.90
2018-08-04T14:23:11.769Z,34.00
2018-08-04T14:25:42.416Z,33.90
2018-08-04T14:28:11.782Z,33.80
2018-08-04T14:30:41.232Z,33.70
2018-08-04T14:33:13.170Z,33.70
2018-08-04T14:35:43.105Z,33.80
2018-08-04T14:38:13.296Z,33.80
2018-08-04T14:40:43.098Z,34.10
2018-08-04T14:43:13.115Z,34.00
2018-08-04T14:45:47.640Z,34.30
2018-08-04T14:50:47.238Z,33.90
2018-08-04T14:53:18.169Z,34.10
2018-08-04T14:55:48.411Z,34.20
2018-08-04T14:58:18.386Z,34.20
2018-08-04T15:00:47.777Z,34.20
2018-08-04T15:03:17.294Z,34.10
2018-08-04T15:05:46.664Z,34.30
2018-08-04T15:08:16.030Z,34.30
2018-08-04T15:10:45.414Z,34.30
2018-08-04T15:15:49.558Z,34.40
2018-08-04T15:18:22.143Z,34.50
2018-08-04T15:23:31.778Z,35.00
2018-08-04T15:26:01.789Z,34.90
2018-08-04T15:28:32.524Z,35.00
2018-08-04T15:31:02.567Z,35.00
2018-08-04T15:33:33.514Z,35.30
2018-08-04T15:36:04.552Z,35.50
2018-08-04T15:38:38.107Z,35.40
2018-08-04T15:41:08.374Z,35.00
2018-08-04T15:43:39.150Z,35.10
2018-08-04T15:46:15.288Z,35.30
2018-08-04T15:48:45.211Z,35.20
2018-08-04T15:51:18.388Z,35.20
2018-08-04T15:53:48.422Z,35.40
2018-08-04T15:59:05.269Z,34.80
2018-08-04T16:01:36.285Z,34.60
2018-08-04T16:04:08.954Z,34.60
2018-08-04T16:06:40.832Z,34.30
2018-08-04T16:09:14.651Z,34.40
2018-08-04T16:11:45.748Z,34.30
2018-08-04T16:14:16.423Z,34.40
2018-08-04T16:16:45.913Z,34.60
2018-08-04T16:19:15.327Z,34.70
2018-08-04T16:21:45.108Z,34.80
2018-08-04T16:26:44.823Z,34.70
2018-08-04T16:29:14.202Z,34.80
2018-08-04T16:31:43.783Z,34.80
2018-08-04T16:34:13.932Z,34.80
2018-08-04T16:36:48.233Z,34.70
2018-08-04T16:39:17.645Z,34.80
2018-08-04T16:41:47.120Z,34.70
2018-08-04T16:44:16.806Z,34.50
2018-08-04T16:46:47.036Z,34.30
2018-08-04T16:49:16.621Z,34.40
2018-08-04T16:51:47.617Z,34.30
2018-08-04T16:54:17.409Z,34.20
2018-08-04T16:56:47.656Z,34.30
2018-08-04T16:59:18.359Z,34.30
2018-08-04T17:01:47.838Z,34.20
2018-08-04T17:04:18.044Z,34.10
2018-08-04T17:06:47.714Z,34.00
2018-08-04T17:09:18.394Z,34.00
2018-08-04T17:11:47.906Z,34.00
2018-08-04T17:14:17.409Z,34.00
2018-08-04T17:16:47.210Z,33.90
2018-08-04T17:19:20.340Z,34.00
2018-08-04T17:21:56.779Z,34.20
2018-08-04T17:24:27.021Z,34.20
2018-08-04T17:26:56.591Z,34.10
2018-08-04T17:29:26.181Z,33.90
2018-08-04T17:31:55.712Z,33.80
2018-08-04T17:34:30.572Z,33.70
2018-08-04T17:37:06.327Z,33.60
2018-08-04T17:39:41.293Z,33.70
2018-08-04T17:42:11.254Z,33.80
2018-08-04T17:44:40.939Z,33.70
2018-08-04T17:47:10.466Z,33.70
2018-08-04T17:49:39.993Z,33.70
2018-08-04T17:52:09.363Z,33.50
2018-08-04T17:54:39.085Z,33.40
2018-08-04T17:59:37.602Z,33.20
2018-08-04T18:02:07.940Z,33.30
2018-08-04T18:04:37.623Z,33.20
2018-08-04T18:07:07.045Z,33.20
2018-08-04T18:09:36.562Z,33.10
2018-08-04T18:12:06.128Z,33.20
2018-08-04T18:14:35.551Z,33.20
2018-08-04T18:17:05.027Z,33.10
2018-08-04T18:19:34.524Z,33.20
2018-08-04T18:22:03.886Z,33.10
2018-08-04T18:24:33.380Z,33.00
2018-08-04T18:27:02.982Z,32.90
2018-08-04T18:29:32.676Z,32.90
2018-08-04T18:32:02.142Z,32.90
2018-08-04T18:34:31.983Z,32.80
2018-08-04T18:37:01.602Z,32.70
2018-08-04T18:39:32.838Z,32.40
2018-08-04T18:42:02.784Z,32.30
2018-08-04T18:44:32.168Z,32.20
2018-08-04T18:47:02.155Z,32.10
2018-08-04T18:49:31.915Z,32.00
2018-08-04T18:52:01.294Z,31.60
2018-08-04T18:54:31.855Z,31.40
2018-08-04T18:57:01.341Z,31.20
2018-08-04T18:59:30.985Z,31.20
2018-08-04T19:02:01.766Z,31.00
2018-08-04T19:04:31.080Z,30.50
2018-08-04T19:07:00.439Z,30.30
2018-08-04T19:09:29.737Z,30.30
2018-08-04T19:11:59.085Z,30.20
2018-08-04T19:14:28.366Z,30.10
2018-08-04T19:21:55.432Z,29.70
2018-08-04T19:24:25.746Z,29.80
2018-08-04T19:26:55.074Z,29.70
2018-08-04T19:29:24.378Z,29.60
2018-08-04T19:31:53.697Z,28.90
2018-08-04T19:34:22.981Z,29.00
2018-08-04T19:39:21.114Z,28.90
2018-08-04T19:41:50.482Z,28.60
2018-08-04T19:46:49.059Z,28.00
2018-08-04T19:49:18.335Z,27.50
2018-08-04T19:51:47.712Z,27.60
2018-08-04T19:54:16.998Z,27.60
2018-08-04T19:56:46.316Z,27.80
2018-08-04T19:59:15.606Z,27.70
2018-08-04T20:01:45.052Z,27.40
2018-08-04T20:04:14.393Z,27.50
2018-08-04T20:06:43.842Z,27.30
2018-08-04T20:09:13.263Z,27.30
2018-08-04T20:11:42.563Z,27.20
2018-08-04T20:14:11.883Z,27.10
2018-08-04T20:16:41.175Z,27.00
2018-08-04T20:19:10.510Z,26.90
2018-08-04T20:21:39.825Z,26.90
2018-08-04T20:24:09.157Z,26.60
2018-08-04T20:26:38.466Z,26.70
2018-08-04T20:29:07.816Z,26.50
2018-08-04T20:31:37.118Z,26.70
2018-08-04T20:34:06.479Z,26.40
2018-08-04T20:36:35.846Z,26.20
2018-08-04T20:39:08.172Z,26.10
2018-08-04T20:41:37.546Z,25.70
2018-08-04T20:44:07.040Z,25.70
2018-08-04T20:46:36.486Z,25.80
2018-08-04T20:51:34.899Z,26.00
2018-08-04T20:54:04.487Z,25.70
2018-08-04T20:56:33.787Z,25.80
2018-08-04T20:59:03.176Z,25.70
2018-08-04T21:01:43.328Z,25.60
2018-08-04T21:04:12.673Z,25.60
2018-08-04T21:06:41.970Z,25.40
2018-08-04T21:09:11.410Z,25.30
2018-08-04T21:11:54.468Z,25.10
2018-08-04T21:14:24.993Z,25.10
2018-08-04T21:16:55.248Z,25.10
2018-08-04T21:19:25.265Z,25.10
2018-08-04T21:21:54.642Z,25.20
2018-08-04T21:24:25.042Z,25.00
2018-08-04T21:26:55.189Z,25.00
2018-08-04T21:29:24.818Z,24.70
2018-08-04T21:31:54.124Z,24.70
2018-08-04T21:34:23.464Z,24.60
2018-08-04T21:36:52.784Z,24.40
2018-08-04T21:39:22.160Z,24.50
2018-08-04T21:41:51.457Z,24.50
2018-08-04T21:44:20.843Z,24.60
2018-08-04T21:46:51.159Z,24.60
2018-08-04T21:49:20.956Z,24.80
2018-08-04T21:51:51.097Z,24.80
2018-08-04T21:54:20.576Z,24.80
2018-08-04T21:56:49.893Z,24.80
2018-08-04T21:59:19.214Z,24.90
2018-08-04T22:01:55.785Z,24.90
2018-08-04T22:04:25.768Z,25.00
2018-08-04T22:08:05.530Z,24.80
2018-08-04T22:10:35.046Z,24.80
2018-08-04T22:13:04.474Z,24.70
2018-08-04T22:15:33.860Z,24.80
2018-08-04T22:18:03.297Z,24.80
2018-08-04T22:20:32.694Z,24.50
2018-08-04T22:23:02.009Z,24.50
2018-08-04T22:25:31.392Z,24.40
2018-08-04T22:28:00.738Z,24.40
2018-08-04T22:30:30.056Z,24.40
2018-08-04T22:32:59.495Z,24.40
2018-08-04T22:35:28.812Z,24.40
2018-08-04T22:37:58.121Z,24.30
2018-08-04T22:40:27.473Z,24.20
2018-08-04T22:42:56.782Z,24.00
2018-08-04T22:46:29.214Z,24.00
2018-08-04T22:48:58.552Z,24.10
2018-08-04T22:51:29.516Z,24.10
2018-08-04T22:53:58.868Z,23.90
2018-08-04T22:56:28.203Z,23.90
2018-08-04T22:58:57.499Z,23.90
2018-08-04T23:01:26.837Z,23.80
2018-08-04T23:03:56.138Z,23.80
2018-08-04T23:06:25.461Z,23.80
2018-08-04T23:08:54.765Z,23.80
2018-08-04T23:11:24.099Z,23.80
2018-08-04T23:13:53.430Z,23.90
2018-08-04T23:16:22.796Z,23.80
2018-08-04T23:18:52.234Z,23.80
2018-08-04T23:21:21.568Z,23.80
2018-08-04T23:23:50.888Z,23.60
2018-08-04T23:26:20.181Z,23.20
2018-08-04T23:28:49.520Z,23.10
2018-08-04T23:31:18.829Z,22.90
2018-08-04T23:33:48.169Z,22.90
2018-08-04T23:36:17.454Z,23.00
2018-08-04T23:38:46.859Z,22.80
2018-08-04T23:41:16.157Z,23.00
2018-08-04T23:43:45.505Z,22.50
2018-08-04T23:46:14.836Z,22.80
2018-08-04T23:48:44.194Z,22.70
2018-08-04T23:51:13.493Z,22.90
2018-08-04T23:53:42.812Z,22.80
2018-08-04T23:56:12.258Z,22.70
2018-08-04T23:58:41.922Z,22.60
